createdAt,value
2023-05-15T00:01:58.669Z,13.75
2023-05-15T00:04:28.593Z,15.43
2023-05-15T00:06:58.630Z,13.98
2023-05-15T00:09:28.414Z,14.65
2023-05-15T00:11:59.261Z,18.23
2023-05-15T00:14:29.593Z,15.10
2023-05-15T00:16:59.719Z,15.15
2023-05-15T00:19:30.256Z,14.90
2023-05-15T00:22:00.035Z,14.30
2023-05-15T00:24:29.966Z,15.13
2023-05-15T00:27:01.434Z,17.02
2023-05-15T00:29:33.346Z,16.70
2023-05-15T00:32:03.261Z,19.15
2023-05-15T00:34:33.413Z,17.15
2023-05-15T00:37:03.954Z,18.42
2023-05-15T00:39:34.774Z,18.38
2023-05-15T00:42:07.105Z,18.38
2023-05-15T00:44:38.068Z,18.60
2023-05-15T00:47:09.344Z,19.17
2023-05-15T00:49:39.980Z,17.40
2023-05-15T00:52:10.775Z,16.02
2023-05-15T00:54:41.762Z,15.95
2023-05-15T00:57:12.789Z,17.02
2023-05-15T00:59:43.925Z,18.02
2023-05-15T01:02:15.972Z,17.15
2023-05-15T01:04:46.236Z,17.75
2023-05-15T01:07:17.606Z,18.83
2023-05-15T01:09:51.636Z,15.32
2023-05-15T01:12:25.538Z,17.48
2023-05-15T01:14:56.388Z,18.15
2023-05-15T01:17:26.832Z,18.90
2023-05-15T01:19:58.762Z,17.98
2023-05-15T01:22:47.267Z,17.50
2023-05-15T01:25:55.664Z,17.90
2023-05-15T01:28:33.660Z,17.13
2023-05-15T01:31:12.961Z,18.02
2023-05-15T01:33:48.715Z,18.30
2023-05-15T01:36:35.144Z,17.42
2023-05-15T01:39:07.615Z,17.65
2023-05-15T01:41:59.032Z,17.33
2023-05-15T01:44:35.982Z,20.50
2023-05-15T01:47:16.856Z,19.52
2023-05-15T01:49:48.144Z,17.90
2023-05-15T01:52:26.828Z,18.38
2023-05-15T01:54:58.388Z,19.35
2023-05-15T01:57:30.447Z,17.33
2023-05-15T02:00:01.787Z,16.95
2023-05-15T02:02:34.397Z,18.65
2023-05-15T02:05:06.461Z,18.25
2023-05-15T02:07:37.676Z,25.55
2023-05-15T02:10:10.514Z,25.88
2023-05-15T02:12:43.635Z,17.83
2023-05-15T02:15:15.438Z,17.20
2023-05-15T02:17:45.627Z,17.55
2023-05-15T02:20:16.388Z,18.67
2023-05-15T02:22:46.547Z,17.88
2023-05-15T02:25:17.903Z,17.25
2023-05-15T02:27:58.341Z,16.95
2023-05-15T02:30:50.397Z,17.80
2023-05-15T02:33:47.680Z,32.65
2023-05-15T02:36:25.773Z,32.55
2023-05-15T02:38:57.695Z,29.90
2023-05-15T02:41:28.622Z,18.50
2023-05-15T02:43:59.519Z,18.50
2023-05-15T02:46:30.544Z,19.90
2023-05-15T02:49:03.350Z,18.98
2023-05-15T02:51:34.452Z,22.00
2023-05-15T02:54:05.315Z,18.98
2023-05-15T02:56:35.687Z,18.55
2023-05-15T02:59:05.834Z,18.55
2023-05-15T03:01:36.103Z,20.95
2023-05-15T03:04:06.302Z,20.17
2023-05-15T03:06:36.498Z,18.70
2023-05-15T03:09:06.798Z,17.75
2023-05-15T03:11:37.496Z,19.27
2023-05-15T03:14:07.883Z,18.42
2023-05-15T03:16:40.208Z,19.00
2023-05-15T03:19:13.310Z,19.40
2023-05-15T03:21:44.020Z,20.25
2023-05-15T03:24:14.111Z,17.02
2023-05-15T03:26:44.383Z,17.83
2023-05-15T03:29:15.288Z,18.20
2023-05-15T03:31:45.403Z,18.30
2023-05-15T03:34:15.378Z,18.38
2023-05-15T03:36:45.697Z,19.08
2023-05-15T03:39:15.921Z,18.70
2023-05-15T03:41:46.480Z,17.60
2023-05-15T03:44:16.288Z,18.88
2023-05-15T03:46:46.966Z,19.35
2023-05-15T03:49:17.342Z,19.73
2023-05-15T03:51:47.351Z,18.48
2023-05-15T03:54:17.804Z,19.45
2023-05-15T03:56:48.014Z,20.15
2023-05-15T03:59:18.630Z,19.27
2023-05-15T04:02:02.834Z,18.90
2023-05-15T04:04:34.215Z,18.52
2023-05-15T04:07:04.724Z,19.77
2023-05-15T04:09:34.752Z,19.60
2023-05-15T04:12:04.501Z,19.30
2023-05-15T04:14:34.406Z,19.40
2023-05-15T04:17:04.511Z,19.25
2023-05-15T04:19:34.858Z,20.35
2023-05-15T04:22:05.126Z,20.05
2023-05-15T04:24:35.610Z,18.52
2023-05-15T04:27:05.850Z,20.05
2023-05-15T04:29:36.334Z,19.33
2023-05-15T04:32:06.361Z,18.27
2023-05-15T04:34:37.100Z,18.17
2023-05-15T04:37:07.817Z,18.67
2023-05-15T04:39:37.670Z,19.02
2023-05-15T04:42:08.036Z,20.33
2023-05-15T04:44:38.196Z,19.85
2023-05-15T04:47:08.198Z,20.33
2023-05-15T04:49:38.280Z,21.55
2023-05-15T04:52:08.074Z,20.48
2023-05-15T04:54:39.044Z,21.20
2023-05-15T04:57:12.012Z,20.70
2023-05-15T04:59:42.392Z,20.67
2023-05-15T05:02:12.818Z,21.40
2023-05-15T05:04:46.854Z,20.70
2023-05-15T05:07:17.440Z,20.33
2023-05-15T05:09:47.376Z,20.50
2023-05-15T05:12:17.429Z,20.35
2023-05-15T05:14:47.327Z,20.92
2023-05-15T05:17:17.556Z,20.55
2023-05-15T05:19:47.367Z,20.25
2023-05-15T05:22:17.554Z,21.15
2023-05-15T05:24:47.428Z,20.30
2023-05-15T05:27:17.862Z,20.13
2023-05-15T05:29:48.013Z,21.77
2023-05-15T05:32:18.353Z,21.08
2023-05-15T05:34:48.172Z,20.73
2023-05-15T05:37:18.675Z,20.90
2023-05-15T05:39:48.649Z,20.58
2023-05-15T05:42:18.706Z,20.95
2023-05-15T05:44:48.576Z,21.85
2023-05-15T05:47:19.288Z,21.13
2023-05-15T05:49:52.401Z,21.63
2023-05-15T05:52:22.805Z,21.77
2023-05-15T05:54:52.671Z,21.73
2023-05-15T05:57:23.181Z,20.38
2023-05-15T05:59:53.678Z,20.98
2023-05-15T06:02:24.038Z,20.80
2023-05-15T06:04:57.579Z,21.38
2023-05-15T06:07:30.706Z,21.10
2023-05-15T06:10:03.227Z,21.25
2023-05-15T06:12:33.531Z,21.35
2023-05-15T06:15:03.713Z,21.02
2023-05-15T06:17:33.762Z,22.48
2023-05-15T06:20:03.978Z,21.98
2023-05-15T06:25:20.648Z,21.73
2023-05-15T06:27:50.501Z,21.42
2023-05-15T06:30:20.561Z,20.77
2023-05-15T06:32:50.409Z,22.60
2023-05-15T06:35:20.623Z,22.23
2023-05-15T06:37:52.293Z,21.83
2023-05-15T06:40:23.355Z,20.88
2023-05-15T06:42:53.537Z,23.20
2023-05-15T06:45:23.525Z,22.92
2023-05-15T06:47:53.921Z,22.83
2023-05-15T06:50:24.328Z,22.25
2023-05-15T06:52:54.624Z,23.88
2023-05-15T06:55:24.732Z,26.17
2023-05-15T06:57:55.106Z,22.17
2023-05-15T07:00:24.985Z,21.98
2023-05-15T07:02:55.119Z,22.77
2023-05-15T07:05:25.396Z,35.75
2023-05-15T07:07:56.413Z,24.65
2023-05-15T07:10:26.863Z,22.20
2023-05-15T07:12:57.385Z,23.27
2023-05-15T07:15:27.709Z,22.75
2023-05-15T07:17:57.921Z,22.73
2023-05-15T07:20:30.997Z,22.00
2023-05-15T07:23:02.664Z,21.90
2023-05-15T07:25:32.742Z,22.02
2023-05-15T07:28:03.032Z,23.92
2023-05-15T07:30:32.870Z,22.75
2023-05-15T07:33:02.999Z,22.27
2023-05-15T07:35:32.874Z,23.55
2023-05-15T07:38:03.212Z,24.58
2023-05-15T07:40:33.273Z,23.85
2023-05-15T07:43:03.300Z,23.40
2023-05-15T07:45:33.167Z,23.80
2023-05-15T07:48:22.315Z,24.00
2023-05-15T07:50:53.886Z,23.77
2023-05-15T07:53:24.073Z,24.30
2023-05-15T07:55:54.884Z,24.42
2023-05-15T07:58:25.742Z,24.45
2023-05-15T08:00:55.984Z,24.55
2023-05-15T08:03:26.493Z,24.00
2023-05-15T08:05:56.340Z,23.40
2023-05-15T08:08:26.450Z,24.15
2023-05-15T08:10:56.308Z,24.08
2023-05-15T08:13:26.888Z,25.35
2023-05-15T08:15:56.809Z,25.80
2023-05-15T08:18:26.960Z,26.33
2023-05-15T08:20:57.128Z,26.08
2023-05-15T08:23:27.665Z,24.83
2023-05-15T08:25:57.509Z,24.60
2023-05-15T08:28:27.529Z,25.05
2023-05-15T08:30:57.819Z,24.35
2023-05-15T08:33:28.079Z,24.95
2023-05-15T08:35:57.982Z,23.50
2023-05-15T08:38:29.103Z,24.23
2023-05-15T08:41:04.504Z,25.50
2023-05-15T08:43:37.874Z,24.67
2023-05-15T08:46:09.216Z,25.05
2023-05-15T08:48:42.379Z,25.50
2023-05-15T08:51:13.865Z,24.33
2023-05-15T08:53:44.349Z,24.55
2023-05-15T08:56:15.042Z,24.13
2023-05-15T08:58:46.670Z,24.77
2023-05-15T09:01:17.893Z,24.50
2023-05-15T09:03:48.817Z,24.90
2023-05-15T09:06:19.463Z,23.50
2023-05-15T09:08:50.651Z,23.75
2023-05-15T09:11:21.305Z,24.77
2023-05-15T09:13:51.480Z,24.13
2023-05-15T09:16:23.481Z,24.33
2023-05-15T09:18:55.386Z,24.38
2023-05-15T09:21:29.128Z,24.35
2023-05-15T09:24:25.524Z,24.55
2023-05-15T09:27:08.864Z,23.80
2023-05-15T09:29:40.781Z,24.17
2023-05-15T09:32:14.036Z,24.05
2023-05-15T09:34:46.178Z,24.73
2023-05-15T09:37:35.315Z,25.05
2023-05-15T09:40:15.263Z,25.38
2023-05-15T09:42:53.123Z,24.38
2023-05-15T09:45:23.523Z,24.58
2023-05-15T09:47:53.585Z,24.30
2023-05-15T09:50:26.239Z,23.73
2023-05-15T09:52:56.880Z,24.00
2023-05-15T09:55:27.254Z,24.67
2023-05-15T09:58:08.571Z,25.52
2023-05-15T10:00:48.658Z,26.48
2023-05-15T10:03:22.465Z,25.20
2023-05-15T10:05:53.443Z,26.27
2023-05-15T10:08:31.182Z,25.27
2023-05-15T10:11:06.588Z,26.00
2023-05-15T10:13:39.486Z,26.92
2023-05-15T10:16:09.929Z,26.50
2023-05-15T10:18:43.525Z,25.13
2023-05-15T10:21:15.834Z,24.88
2023-05-15T10:23:48.291Z,26.58
2023-05-15T10:26:26.135Z,28.75
2023-05-15T10:28:57.263Z,27.27
2023-05-15T10:31:28.575Z,29.05
2023-05-15T10:33:59.037Z,28.67
2023-05-15T10:36:30.860Z,26.42
2023-05-15T10:39:03.209Z,26.05
2023-05-15T10:41:41.095Z,25.92
2023-05-15T10:44:12.302Z,32.08
2023-05-15T10:46:43.083Z,37.05
2023-05-15T10:49:13.412Z,28.10
2023-05-15T10:51:45.084Z,26.83
2023-05-15T10:54:16.060Z,25.98
2023-05-15T10:56:46.164Z,26.90
2023-05-15T10:59:16.787Z,30.80
2023-05-15T11:01:47.360Z,31.63
2023-05-15T11:04:19.270Z,31.50
2023-05-15T11:06:51.009Z,30.25
2023-05-15T11:09:40.484Z,34.42
2023-05-15T11:12:15.475Z,34.13
2023-05-15T11:15:06.415Z,41.75
2023-05-15T11:17:36.698Z,40.78
2023-05-15T11:20:06.899Z,38.40
2023-05-15T11:22:37.886Z,37.13
2023-05-15T11:25:11.577Z,33.55
2023-05-15T11:27:49.280Z,31.35
2023-05-15T11:30:24.254Z,31.15
2023-05-15T11:33:12.801Z,31.85
2023-05-15T11:35:48.769Z,32.72
2023-05-15T11:38:26.440Z,35.15
2023-05-15T11:40:59.840Z,34.28
2023-05-15T11:43:33.189Z,34.20
2023-05-15T11:46:10.985Z,34.50
2023-05-15T11:48:46.169Z,35.58
2023-05-15T11:51:28.477Z,35.22
2023-05-15T11:53:59.875Z,35.17
2023-05-15T11:56:30.773Z,35.60
2023-05-15T11:59:02.754Z,36.40
2023-05-15T12:01:49.216Z,36.60
2023-05-15T12:04:20.428Z,34.67
2023-05-15T12:06:51.053Z,36.50
2023-05-15T12:09:23.156Z,38.35
2023-05-15T12:11:57.709Z,36.03
2023-05-15T12:14:31.967Z,35.92
2023-05-15T12:17:07.561Z,39.20
2023-05-15T12:19:39.020Z,37.72
2023-05-15T12:22:10.017Z,176.43
2023-05-15T12:24:44.032Z,140.40
2023-05-15T12:27:15.648Z,40.88
2023-05-15T12:29:45.931Z,42.42
2023-05-15T12:32:16.042Z,41.30
2023-05-15T12:34:46.359Z,40.22
2023-05-15T12:37:16.517Z,39.55
2023-05-15T12:40:14.285Z,42.42
2023-05-15T12:42:46.194Z,43.85
2023-05-15T12:45:18.938Z,43.97
2023-05-15T12:47:51.114Z,44.38
2023-05-15T12:50:25.898Z,46.90
2023-05-15T12:52:58.463Z,48.10
2023-05-15T12:55:37.587Z,47.30
2023-05-15T12:58:10.281Z,47.05
2023-05-15T13:00:43.259Z,45.55
2023-05-15T13:03:15.330Z,45.75
2023-05-15T13:05:47.971Z,47.60
2023-05-15T13:08:20.412Z,47.75
2023-05-15T13:10:58.011Z,47.03
2023-05-15T13:13:51.913Z,45.70
2023-05-15T13:16:26.102Z,44.63
2023-05-15T13:18:57.497Z,45.83
2023-05-15T13:21:28.180Z,47.00
2023-05-15T13:23:59.274Z,48.55
2023-05-15T13:26:32.137Z,57.17
2023-05-15T13:29:03.221Z,62.45
2023-05-15T13:31:34.282Z,58.83
2023-05-15T13:34:04.722Z,47.92
2023-05-15T13:36:34.660Z,45.50
2023-05-15T13:39:05.431Z,46.70
2023-05-15T13:41:35.499Z,45.25
2023-05-15T13:44:06.048Z,44.25
2023-05-15T13:46:36.392Z,44.72
2023-05-15T13:49:07.564Z,48.03
2023-05-15T13:51:38.020Z,43.92
2023-05-15T13:54:07.974Z,44.42
2023-05-15T13:56:37.941Z,45.70
2023-05-15T13:59:07.710Z,51.95
2023-05-15T14:01:37.709Z,57.90
2023-05-15T14:04:07.457Z,57.55
2023-05-15T14:06:37.594Z,57.60
2023-05-15T14:09:08.856Z,58.47
2023-05-15T14:11:39.019Z,57.38
2023-05-15T14:14:09.013Z,53.35
2023-05-15T14:16:38.925Z,49.47
2023-05-15T14:19:08.887Z,46.03
2023-05-15T14:21:43.182Z,46.25
2023-05-15T14:24:13.075Z,47.25
2023-05-15T14:26:42.893Z,46.67
2023-05-15T14:29:13.823Z,43.85
2023-05-15T14:31:45.253Z,43.78
2023-05-15T14:34:16.222Z,44.17
2023-05-15T14:36:47.839Z,45.15
2023-05-15T14:39:18.728Z,45.30
2023-05-15T14:41:49.116Z,46.72
2023-05-15T14:44:19.339Z,46.60
2023-05-15T14:46:49.210Z,45.88
2023-05-15T14:49:19.123Z,43.70
2023-05-15T14:51:48.924Z,42.35
2023-05-15T14:54:19.997Z,98.97
2023-05-15T14:56:51.117Z,53.20
2023-05-15T14:59:21.272Z,46.45
2023-05-15T15:01:51.134Z,42.00
2023-05-15T15:04:21.274Z,45.47
2023-05-15T15:06:51.424Z,46.47
2023-05-15T15:09:21.780Z,43.20
2023-05-15T15:11:51.766Z,42.70
2023-05-15T15:14:22.233Z,45.00
2023-05-15T15:16:52.200Z,43.40
2023-05-15T15:19:22.600Z,44.00
2023-05-15T15:21:53.154Z,40.65
2023-05-15T15:24:24.951Z,41.35
2023-05-15T15:26:55.075Z,40.25
2023-05-15T15:29:25.003Z,41.45
2023-05-15T15:31:55.608Z,41.65
2023-05-15T15:34:26.324Z,40.20
2023-05-15T15:36:56.157Z,41.03
2023-05-15T15:39:26.789Z,40.78
2023-05-15T15:41:56.636Z,91.80
2023-05-15T15:44:27.010Z,43.72
2023-05-15T15:46:57.214Z,46.17
2023-05-15T15:49:27.200Z,42.20
2023-05-15T15:51:57.420Z,42.95
2023-05-15T15:54:27.631Z,43.60
2023-05-15T15:56:57.834Z,44.40
2023-05-15T15:59:27.737Z,42.33
2023-05-15T16:01:58.203Z,44.22
2023-05-15T16:04:28.528Z,42.95
2023-05-15T16:06:58.357Z,41.95
2023-05-15T16:09:30.238Z,42.63
2023-05-15T16:12:01.027Z,88.10
2023-05-15T16:14:32.980Z,43.42
2023-05-15T16:17:04.848Z,43.75
2023-05-15T16:19:37.769Z,42.58
2023-05-15T16:22:07.932Z,42.80
2023-05-15T16:24:38.806Z,42.92
2023-05-15T16:28:09.282Z,42.65
2023-05-15T16:31:03.189Z,43.50
2023-05-15T16:33:34.035Z,41.35
2023-05-15T16:36:06.572Z,41.58
2023-05-15T16:38:36.830Z,43.45
2023-05-15T16:41:06.970Z,42.42
2023-05-15T16:43:39.807Z,42.97
2023-05-15T16:46:10.014Z,43.13
2023-05-15T16:48:39.948Z,42.58
2023-05-15T16:51:10.775Z,42.45
2023-05-15T16:53:41.414Z,42.70
2023-05-15T16:56:14.167Z,42.67
2023-05-15T16:58:44.611Z,41.20
2023-05-15T17:01:14.707Z,66.10
2023-05-15T17:03:46.375Z,45.10
2023-05-15T17:06:16.664Z,44.10
2023-05-15T17:08:47.693Z,43.40
2023-05-15T17:11:17.894Z,42.38
2023-05-15T17:13:47.836Z,43.95
2023-05-15T17:16:18.171Z,43.35
2023-05-15T17:18:48.041Z,49.20
2023-05-15T17:21:18.151Z,43.78
2023-05-15T17:23:48.108Z,42.83
2023-05-15T17:26:18.301Z,41.55
2023-05-15T17:28:48.250Z,42.92
2023-05-15T17:31:18.370Z,42.42
2023-05-15T17:33:49.159Z,43.53
2023-05-15T17:36:19.501Z,42.30
2023-05-15T17:38:49.338Z,43.58
2023-05-15T17:41:19.360Z,42.63
2023-05-15T17:43:50.916Z,45.85
2023-05-15T17:46:21.248Z,46.47
2023-05-15T17:48:51.079Z,44.58
2023-05-15T17:51:21.394Z,43.95
2023-05-15T17:53:51.559Z,43.65
2023-05-15T17:56:21.636Z,42.92
2023-05-15T17:58:51.875Z,46.10
2023-05-15T18:01:23.525Z,45.97
2023-05-15T18:03:54.332Z,45.42
2023-05-15T18:06:25.038Z,44.20
2023-05-15T18:08:55.453Z,44.67
2023-05-15T18:11:26.591Z,44.00
2023-05-15T18:13:56.994Z,45.67
2023-05-15T18:16:27.552Z,47.78
2023-05-15T18:18:58.018Z,48.67
2023-05-15T18:21:28.134Z,49.10
2023-05-15T18:23:57.915Z,46.83
2023-05-15T18:26:30.644Z,48.75
2023-05-15T18:29:00.825Z,47.60
2023-05-15T18:31:30.749Z,48.08
2023-05-15T18:34:02.380Z,50.75
2023-05-15T18:36:32.492Z,47.15
2023-05-15T18:39:02.852Z,50.22
2023-05-15T18:41:33.181Z,48.22
2023-05-15T18:44:02.983Z,46.70
2023-05-15T18:46:33.215Z,49.05
2023-05-15T18:49:03.164Z,49.08
2023-05-15T18:51:33.505Z,50.17
2023-05-15T18:54:03.572Z,50.40
2023-05-15T18:56:33.755Z,49.90
2023-05-15T18:59:03.616Z,51.58
2023-05-15T19:01:33.978Z,52.53
2023-05-15T19:04:05.370Z,51.05
2023-05-15T19:06:35.921Z,51.45
2023-05-15T19:09:06.402Z,50.03
2023-05-15T19:11:36.718Z,47.10
2023-05-15T19:14:06.586Z,48.95
2023-05-15T19:16:37.146Z,48.33
2023-05-15T19:19:07.904Z,50.08
2023-05-15T19:21:39.997Z,50.20
2023-05-15T19:24:10.944Z,51.75
2023-05-15T19:26:41.441Z,50.55
2023-05-15T19:29:12.036Z,52.75
2023-05-15T19:31:42.559Z,55.45
2023-05-15T19:34:12.452Z,56.85
2023-05-15T19:36:42.579Z,57.60
2023-05-15T19:39:12.518Z,56.17
2023-05-15T19:41:42.628Z,55.55
2023-05-15T19:44:12.828Z,54.22
2023-05-15T19:46:43.357Z,53.97
2023-05-15T19:49:14.182Z,55.17
2023-05-15T19:51:44.470Z,52.88
2023-05-15T19:54:14.646Z,53.10
2023-05-15T19:56:44.688Z,53.92
2023-05-15T19:59:14.610Z,50.88
2023-05-15T20:01:44.912Z,51.78
2023-05-15T20:04:15.531Z,54.67
2023-05-15T20:06:46.785Z,55.92
2023-05-15T20:09:17.002Z,52.03
2023-05-15T20:11:47.171Z,52.63
2023-05-15T20:14:17.463Z,50.70
2023-05-15T20:16:47.390Z,54.00
2023-05-15T20:19:18.529Z,55.50
2023-05-15T20:21:48.849Z,57.90
2023-05-15T20:24:19.571Z,57.20
2023-05-15T20:26:50.187Z,57.45
2023-05-15T20:29:20.675Z,57.13
2023-05-15T20:31:50.623Z,54.35
2023-05-15T20:34:20.873Z,52.92
2023-05-15T20:36:54.138Z,52.60
2023-05-15T20:39:24.421Z,52.83
2023-05-15T20:41:54.168Z,52.08
2023-05-15T20:44:24.625Z,48.88
2023-05-15T20:46:54.495Z,53.72
2023-05-15T20:49:25.277Z,54.97
2023-05-15T20:51:55.734Z,54.20
2023-05-15T20:54:25.820Z,52.58
2023-05-15T20:56:56.573Z,50.42
2023-05-15T20:59:26.947Z,52.65
2023-05-15T21:01:57.652Z,54.35
2023-05-15T21:04:28.208Z,54.78
2023-05-15T21:06:58.942Z,58.53
2023-05-15T21:09:28.810Z,54.25
2023-05-15T21:11:58.896Z,52.40
2023-05-15T21:14:28.821Z,51.38
2023-05-15T21:16:59.267Z,52.80
2023-05-15T21:19:29.235Z,52.45
2023-05-15T21:21:59.252Z,52.83
2023-05-15T21:24:29.153Z,53.22
2023-05-15T21:26:59.339Z,54.22
2023-05-15T21:29:29.183Z,56.78
2023-05-15T21:31:59.816Z,54.72
2023-05-15T21:34:29.762Z,54.55
2023-05-15T21:37:00.375Z,56.28
2023-05-15T21:39:30.249Z,54.65
2023-05-15T21:42:00.528Z,57.53
2023-05-15T21:44:30.450Z,54.38
2023-05-15T21:47:00.789Z,58.25
2023-05-15T21:49:30.638Z,53.72
2023-05-15T21:52:00.791Z,55.60
2023-05-15T21:54:30.881Z,54.60
2023-05-15T21:57:01.119Z,54.92
2023-05-15T21:59:31.073Z,53.17
2023-05-15T22:02:01.095Z,52.20
2023-05-15T22:04:31.839Z,53.20
2023-05-15T22:07:02.316Z,49.92
2023-05-15T22:09:32.211Z,49.72
2023-05-15T22:12:02.276Z,52.90
2023-05-15T22:14:35.194Z,51.95
2023-05-15T22:17:05.806Z,52.75
2023-05-15T22:19:36.097Z,50.50
2023-05-15T22:22:06.563Z,51.30
2023-05-15T22:24:37.042Z,53.42
2023-05-15T22:27:07.381Z,50.85
2023-05-15T22:29:37.221Z,49.72
2023-05-15T22:32:07.976Z,50.85
2023-05-15T22:34:38.589Z,52.47
2023-05-15T22:37:08.386Z,50.38
2023-05-15T22:39:38.344Z,52.22
2023-05-15T22:42:09.052Z,52.70
2023-05-15T22:44:39.252Z,49.70
2023-05-15T22:47:09.183Z,51.28
2023-05-15T22:49:39.587Z,49.92
2023-05-15T22:52:10.627Z,52.90
2023-05-15T22:54:42.520Z,51.15
2023-05-15T22:57:12.525Z,50.60
2023-05-15T22:59:46.125Z,49.30
2023-05-15T23:02:16.195Z,48.47
2023-05-15T23:04:46.965Z,48.15
2023-05-15T23:07:19.079Z,49.85
2023-05-15T23:09:49.426Z,49.13
2023-05-15T23:12:19.622Z,48.30
2023-05-15T23:14:49.864Z,48.72
2023-05-15T23:17:19.617Z,47.60
2023-05-15T23:19:50.073Z,47.00
2023-05-15T23:22:20.608Z,47.58
2023-05-15T23:24:50.661Z,64.55
2023-05-15T23:27:20.907Z,59.35
2023-05-15T23:29:51.072Z,48.97
2023-05-15T23:32:21.286Z,49.88
2023-05-15T23:34:51.131Z,48.03
2023-05-15T23:37:21.148Z,48.97
2023-05-15T23:39:51.036Z,47.15
2023-05-15T23:42:21.143Z,48.22
2023-05-15T23:44:52.971Z,46.80
2023-05-15T23:47:23.223Z,48.33
2023-05-15T23:49:52.991Z,50.08
2023-05-15T23:52:22.987Z,46.15
2023-05-15T23:54:53.446Z,47.67
2023-05-15T23:57:23.997Z,51.42
2023-05-15T23:59:54.331Z,44.28
